createdAt,value
2023-01-07T00:00:53.807Z,5.00
2023-01-07T00:03:21.250Z,4.07
2023-01-07T00:05:48.518Z,4.53
2023-01-07T00:08:15.655Z,2.93
2023-01-07T00:10:42.807Z,3.90
2023-01-07T00:13:09.917Z,4.63
2023-01-07T00:15:36.979Z,3.73
2023-01-07T00:18:04.132Z,4.50
2023-01-07T00:20:31.210Z,4.10
2023-01-07T00:22:58.306Z,2.97
2023-01-07T00:25:25.535Z,4.53
2023-01-07T00:27:52.663Z,4.40
2023-01-07T00:30:19.817Z,4.63
2023-01-07T00:33:06.271Z,4.40
2023-01-07T00:35:36.769Z,4.27
2023-01-07T00:38:04.969Z,3.90
2023-01-07T00:40:32.946Z,3.60
2023-01-07T00:43:07.334Z,3.90
2023-01-07T00:45:35.735Z,4.07
2023-01-07T00:48:03.549Z,4.70
2023-01-07T00:50:32.719Z,4.00
2023-01-07T00:53:00.117Z,4.00
2023-01-07T00:55:27.213Z,2.83
2023-01-07T00:57:54.967Z,3.77
2023-01-07T01:00:22.927Z,4.60
2023-01-07T01:02:50.515Z,4.37
2023-01-07T01:05:17.834Z,4.70
2023-01-07T01:07:45.513Z,3.77
2023-01-07T01:10:14.358Z,4.23
2023-01-07T01:12:41.920Z,4.60
2023-01-07T01:15:11.004Z,4.47
2023-01-07T01:17:38.435Z,3.80
2023-01-07T01:20:06.705Z,3.77
2023-01-07T01:22:33.865Z,4.50
2023-01-07T01:25:00.949Z,4.00
2023-01-07T01:27:30.379Z,4.53
2023-01-07T01:29:58.104Z,4.03
2023-01-07T01:32:25.203Z,3.90
2023-01-07T01:34:52.497Z,4.30
2023-01-07T01:37:19.788Z,4.17
2023-01-07T01:39:47.073Z,3.77
2023-01-07T01:42:15.086Z,3.90
2023-01-07T01:44:45.085Z,4.20
2023-01-07T01:47:14.939Z,4.33
2023-01-07T01:49:44.439Z,4.73
2023-01-07T01:52:16.420Z,4.87
2023-01-07T01:54:45.706Z,5.07
2023-01-07T01:57:12.857Z,4.10
2023-01-07T01:59:41.503Z,5.57
2023-01-07T02:02:09.555Z,4.23
2023-01-07T02:04:37.204Z,4.50
2023-01-07T02:07:05.988Z,4.63
2023-01-07T02:09:33.139Z,4.90
2023-01-07T02:12:00.231Z,4.50
2023-01-07T02:14:45.798Z,3.60
2023-01-07T02:17:24.731Z,4.40
2023-01-07T02:20:06.354Z,4.23
2023-01-07T02:22:48.033Z,4.10
2023-01-07T02:25:23.193Z,4.67
2023-01-07T02:28:04.996Z,4.27
2023-01-07T02:30:44.521Z,4.47
2023-01-07T02:33:17.489Z,5.43
2023-01-07T02:35:48.149Z,5.53
2023-01-07T02:38:18.337Z,3.05
2023-01-07T02:41:04.179Z,3.67
2023-01-07T02:43:31.290Z,5.20
2023-01-07T02:46:10.428Z,4.50
2023-01-07T02:48:38.568Z,4.93
2023-01-07T02:51:05.736Z,4.85
2023-01-07T02:53:33.399Z,4.72
2023-01-07T02:56:16.705Z,4.82
2023-01-07T02:58:46.849Z,5.22
2023-01-07T03:01:25.561Z,4.82
2023-01-07T03:04:05.058Z,5.00
2023-01-07T03:06:56.562Z,5.10
2023-01-07T03:12:08.968Z,4.10
2023-01-07T03:14:41.624Z,4.93
2023-01-07T03:17:10.113Z,3.43
2023-01-07T03:19:38.969Z,3.83
2023-01-07T03:22:08.752Z,4.50
2023-01-07T03:24:36.111Z,4.20
2023-01-07T03:27:05.234Z,4.80
2023-01-07T03:29:32.865Z,4.37
2023-01-07T03:32:06.501Z,4.37
2023-01-07T03:34:34.018Z,4.57
2023-01-07T03:37:03.248Z,5.27
2023-01-07T03:39:31.916Z,4.50
2023-01-07T03:42:17.922Z,4.73
2023-01-07T03:44:45.021Z,4.90
2023-01-07T03:47:12.563Z,5.30
2023-01-07T03:49:40.003Z,5.60
2023-01-07T03:52:07.178Z,4.63
2023-01-07T03:54:34.268Z,5.30
2023-01-07T03:57:01.478Z,5.27
2023-01-07T03:59:28.580Z,5.30
2023-01-07T04:01:55.761Z,5.20
2023-01-07T04:04:23.030Z,5.60
2023-01-07T04:06:50.179Z,4.60
2023-01-07T04:09:18.912Z,5.53
2023-01-07T04:11:46.226Z,6.57
2023-01-07T04:14:13.351Z,6.30
2023-01-07T04:16:40.503Z,5.47
2023-01-07T04:19:07.706Z,6.83
2023-01-07T04:21:34.837Z,6.67
2023-01-07T04:24:01.939Z,5.73
2023-01-07T04:26:29.179Z,6.90
2023-01-07T04:28:56.347Z,4.77
2023-01-07T04:31:23.890Z,6.00
2023-01-07T04:33:51.051Z,4.77
2023-01-07T04:36:18.174Z,4.03
2023-01-07T04:38:45.257Z,5.00
2023-01-07T04:41:12.426Z,4.23
2023-01-07T04:43:39.511Z,5.40
2023-01-07T04:46:06.924Z,4.80
2023-01-07T04:48:34.151Z,5.03
2023-01-07T04:51:01.232Z,5.00
2023-01-07T04:53:28.343Z,3.67
2023-01-07T04:55:55.513Z,4.93
2023-01-07T04:58:22.626Z,4.70
2023-01-07T05:00:49.792Z,3.97
2023-01-07T05:03:19.958Z,4.53
2023-01-07T05:05:47.125Z,5.00
2023-01-07T05:08:14.249Z,5.70
2023-01-07T05:10:41.426Z,5.63
2023-01-07T05:13:08.640Z,5.63
2023-01-07T05:15:35.726Z,5.60
2023-01-07T05:18:02.977Z,5.43
2023-01-07T05:20:30.123Z,5.80
2023-01-07T05:22:57.308Z,5.77
2023-01-07T05:25:24.460Z,5.57
2023-01-07T05:27:51.781Z,6.60
2023-01-07T05:30:18.972Z,6.50
2023-01-07T05:32:46.116Z,6.90
2023-01-07T05:35:13.231Z,6.70
2023-01-07T05:37:40.339Z,6.13
2023-01-07T05:40:07.919Z,6.50
2023-01-07T05:42:35.049Z,7.07
2023-01-07T05:45:02.136Z,5.90
2023-01-07T05:47:29.314Z,6.73
2023-01-07T05:49:56.401Z,6.77
2023-01-07T05:52:23.497Z,7.80
2023-01-07T05:54:50.681Z,6.80
2023-01-07T05:57:17.871Z,7.73
2023-01-07T05:59:44.991Z,7.07
2023-01-07T06:02:12.155Z,7.90
2023-01-07T06:04:39.363Z,7.03
2023-01-07T06:07:06.472Z,6.20
2023-01-07T06:09:33.618Z,4.93
2023-01-07T06:12:00.721Z,4.63
2023-01-07T06:14:27.809Z,5.67
2023-01-07T06:16:54.963Z,6.20
2023-01-07T06:19:22.916Z,4.53
2023-01-07T06:21:50.405Z,6.53
2023-01-07T06:24:17.563Z,6.37
2023-01-07T06:26:44.668Z,7.23
2023-01-07T06:29:11.875Z,7.03
2023-01-07T06:31:39.054Z,6.93
2023-01-07T06:34:06.223Z,6.03
2023-01-07T06:36:33.387Z,5.60
2023-01-07T06:39:00.527Z,4.97
2023-01-07T06:41:27.619Z,6.70
2023-01-07T06:43:54.832Z,6.17
2023-01-07T06:46:22.251Z,5.10
2023-01-07T06:48:49.414Z,5.93
2023-01-07T06:51:16.516Z,6.90
2023-01-07T06:53:43.673Z,4.80
2023-01-07T06:56:10.750Z,6.37
2023-01-07T06:58:37.826Z,6.27
2023-01-07T07:01:05.895Z,6.70
2023-01-07T07:03:33.049Z,6.40
2023-01-07T07:06:00.167Z,6.47
2023-01-07T07:08:27.405Z,6.70
2023-01-07T07:10:54.496Z,6.27
2023-01-07T07:13:21.595Z,5.13
2023-01-07T07:15:49.861Z,4.53
2023-01-07T07:18:19.750Z,5.83
2023-01-07T07:20:47.452Z,6.00
2023-01-07T07:23:14.689Z,5.73
2023-01-07T07:25:41.796Z,6.87
2023-01-07T07:28:08.870Z,6.20
2023-01-07T07:30:47.013Z,6.30
2023-01-07T07:33:15.404Z,6.73
2023-01-07T07:35:42.789Z,6.10
2023-01-07T07:38:09.921Z,7.77
2023-01-07T07:40:37.171Z,6.73
2023-01-07T07:43:10.807Z,7.20
2023-01-07T07:45:39.904Z,6.50
2023-01-07T07:48:07.645Z,6.93
2023-01-07T07:50:34.885Z,6.17
2023-01-07T07:53:02.122Z,6.33
2023-01-07T07:55:29.330Z,6.43
2023-01-07T07:57:56.837Z,5.47
2023-01-07T08:00:24.284Z,11.97
2023-01-07T08:02:51.525Z,7.40
2023-01-07T08:05:18.819Z,8.10
2023-01-07T08:07:45.961Z,5.97
2023-01-07T08:10:13.203Z,6.37
2023-01-07T08:12:40.374Z,5.80
2023-01-07T08:15:08.526Z,5.37
2023-01-07T08:17:39.239Z,4.27
2023-01-07T08:20:07.435Z,7.20
2023-01-07T08:22:34.623Z,6.23
2023-01-07T08:25:01.859Z,7.87
2023-01-07T08:27:29.374Z,7.87
2023-01-07T08:29:56.989Z,7.60
2023-01-07T08:32:24.221Z,6.77
2023-01-07T08:34:51.395Z,6.97
2023-01-07T08:37:18.593Z,7.47
2023-01-07T08:39:45.739Z,4.57
2023-01-07T08:42:12.884Z,5.73
2023-01-07T08:44:40.047Z,6.37
2023-01-07T08:47:07.237Z,6.10
2023-01-07T08:49:34.399Z,6.23
2023-01-07T08:52:01.463Z,11.97
2023-01-07T08:54:28.722Z,5.93
2023-01-07T08:56:55.814Z,7.90
2023-01-07T08:59:22.921Z,3.33
2023-01-07T09:01:50.224Z,6.47
2023-01-07T09:04:17.431Z,7.07
2023-01-07T09:06:44.546Z,5.50
2023-01-07T09:09:14.415Z,7.10
2023-01-07T09:11:41.503Z,6.53
2023-01-07T09:14:08.800Z,5.87
2023-01-07T09:16:35.983Z,5.83
2023-01-07T09:19:03.086Z,6.97
2023-01-07T09:21:30.163Z,3.87
2023-01-07T09:23:57.525Z,4.90
2023-01-07T09:26:24.623Z,7.23
2023-01-07T09:28:51.699Z,6.20
2023-01-07T09:31:19.173Z,7.10
2023-01-07T09:33:46.333Z,6.63
2023-01-07T09:36:13.450Z,7.57
2023-01-07T09:38:40.727Z,5.33
2023-01-07T09:41:37.314Z,4.78
2023-01-07T09:44:21.414Z,5.40
2023-01-07T09:46:48.811Z,8.00
2023-01-07T09:49:19.448Z,5.93
2023-01-07T09:51:53.625Z,5.28
2023-01-07T09:54:39.697Z,6.13
2023-01-07T09:57:07.057Z,6.57
2023-01-07T09:59:34.183Z,7.18
2023-01-07T10:02:19.725Z,7.23
2023-01-07T10:04:51.528Z,5.63
2023-01-07T10:07:24.587Z,6.45
2023-01-07T10:09:51.716Z,6.10
2023-01-07T10:12:37.496Z,5.97
2023-01-07T10:15:04.594Z,5.67
2023-01-07T10:17:51.068Z,6.73
2023-01-07T10:20:29.345Z,7.20
2023-01-07T10:23:09.880Z,6.87
2023-01-07T10:25:41.357Z,7.15
2023-01-07T10:28:11.675Z,6.43
2023-01-07T10:30:43.315Z,6.03
2023-01-07T10:33:16.482Z,6.18
2023-01-07T10:35:44.147Z,5.83
2023-01-07T10:38:18.968Z,7.37
2023-01-07T10:40:59.832Z,7.30
2023-01-07T10:44:02.672Z,4.97
2023-01-07T10:46:29.858Z,5.80
2023-01-07T10:49:05.674Z,8.32
2023-01-07T10:51:51.759Z,7.18
2023-01-07T10:54:38.317Z,8.00
2023-01-07T10:57:14.571Z,5.43
2023-01-07T10:59:43.407Z,8.40
2023-01-07T11:02:15.943Z,8.32
2023-01-07T11:04:43.280Z,7.22
2023-01-07T11:07:19.622Z,8.30
2023-01-07T11:09:48.169Z,8.45
2023-01-07T11:12:21.098Z,7.60
2023-01-07T11:14:48.832Z,8.93
2023-01-07T11:17:21.309Z,5.30
2023-01-07T11:19:51.595Z,8.02
2023-01-07T11:22:38.025Z,6.70
2023-01-07T11:25:40.500Z,7.85
2023-01-07T11:28:17.603Z,5.35
2023-01-07T11:30:44.791Z,7.85
2023-01-07T11:33:20.541Z,6.72
2023-01-07T11:35:57.033Z,5.85
2023-01-07T11:38:29.008Z,5.45
2023-01-07T11:40:59.793Z,8.15
2023-01-07T11:43:33.741Z,7.63
2023-01-07T11:46:19.345Z,5.53
2023-01-07T11:48:56.160Z,8.17
2023-01-07T11:51:24.244Z,7.40
2023-01-07T11:53:51.301Z,7.77
2023-01-07T11:56:21.280Z,7.65
2023-01-07T11:58:49.631Z,6.70
2023-01-07T12:01:18.345Z,7.82
2023-01-07T12:03:54.774Z,8.95
2023-01-07T12:06:25.792Z,10.02
2023-01-07T12:09:01.746Z,9.40
2023-01-07T12:11:33.792Z,8.73
2023-01-07T12:14:08.157Z,11.68
2023-01-07T12:16:36.332Z,14.05
2023-01-07T12:19:09.740Z,16.08
2023-01-07T12:21:49.149Z,12.43
2023-01-07T12:24:25.305Z,9.60
2023-01-07T12:26:52.412Z,10.10
2023-01-07T12:29:38.876Z,9.02
2023-01-07T12:32:13.991Z,9.80
2023-01-07T12:34:56.259Z,8.48
2023-01-07T12:37:32.893Z,10.73
2023-01-07T12:40:20.114Z,10.82
2023-01-07T12:42:53.855Z,9.48
2023-01-07T12:45:28.214Z,6.47
2023-01-07T12:48:00.291Z,7.53
2023-01-07T12:50:35.839Z,8.50
2023-01-07T12:53:08.342Z,8.30
2023-01-07T12:55:37.404Z,7.93
2023-01-07T12:58:08.994Z,8.95
2023-01-07T13:00:38.091Z,8.85
2023-01-07T13:03:23.576Z,8.02
2023-01-07T13:06:11.035Z,8.63
2023-01-07T13:08:38.099Z,9.35
2023-01-07T13:11:45.856Z,8.60
2023-01-07T13:14:17.907Z,6.95
2023-01-07T13:16:45.101Z,7.15
2023-01-07T13:19:12.397Z,5.82
2023-01-07T13:21:39.849Z,8.88
2023-01-07T13:24:56.044Z,9.52
2023-01-07T13:27:25.153Z,7.15
2023-01-07T13:29:58.663Z,8.53
2023-01-07T13:32:31.812Z,8.70
2023-01-07T13:35:05.155Z,8.43
2023-01-07T13:37:44.273Z,8.70
2023-01-07T13:40:11.421Z,8.20
2023-01-07T13:42:49.029Z,7.77
2023-01-07T13:45:18.231Z,9.40
2023-01-07T13:47:47.397Z,8.33
2023-01-07T13:50:33.379Z,9.73
2023-01-07T13:53:05.409Z,9.53
2023-01-07T13:55:34.224Z,7.83
2023-01-07T13:58:02.832Z,8.80
2023-01-07T14:00:53.726Z,8.50
2023-01-07T14:03:40.213Z,6.88
2023-01-07T14:06:21.888Z,8.40
2023-01-07T14:09:13.633Z,8.07
2023-01-07T14:11:42.165Z,9.98
2023-01-07T14:14:12.310Z,9.03
2023-01-07T14:16:39.384Z,9.13
2023-01-07T14:19:21.865Z,10.07
2023-01-07T14:22:09.210Z,11.37
2023-01-07T14:24:51.217Z,9.77
2023-01-07T14:27:27.344Z,10.73
2023-01-07T14:29:59.401Z,10.60
2023-01-07T14:32:37.153Z,11.03
2023-01-07T14:35:19.764Z,10.70
2023-01-07T14:37:47.180Z,10.80
2023-01-07T14:40:26.650Z,8.17
2023-01-07T14:42:54.388Z,9.50
2023-01-07T14:45:57.105Z,10.37
2023-01-07T14:48:31.256Z,8.23
2023-01-07T14:51:16.608Z,9.07
2023-01-07T14:53:58.709Z,9.63
2023-01-07T14:56:25.846Z,10.00
2023-01-07T14:59:08.492Z,11.30
2023-01-07T15:01:50.944Z,10.20
2023-01-07T15:04:18.145Z,8.57
2023-01-07T15:06:46.045Z,9.30
2023-01-07T15:09:42.226Z,9.23
2023-01-07T15:12:32.163Z,7.87
2023-01-07T15:15:24.360Z,9.17
2023-01-07T15:17:51.510Z,10.00
2023-01-07T15:20:18.632Z,10.10
2023-01-07T15:22:54.485Z,8.97
2023-01-07T15:25:24.589Z,7.77
2023-01-07T15:27:54.641Z,8.70
2023-01-07T15:30:31.429Z,8.33
2023-01-07T15:33:02.154Z,7.47
2023-01-07T15:35:39.120Z,7.40
2023-01-07T15:38:07.759Z,5.73
2023-01-07T15:40:34.846Z,7.00
2023-01-07T15:43:02.752Z,6.90
2023-01-07T15:45:30.026Z,7.63
2023-01-07T15:48:08.247Z,7.53
2023-01-07T15:50:37.602Z,7.30
2023-01-07T15:53:13.655Z,8.83
2023-01-07T15:55:42.423Z,7.27
2023-01-07T15:58:16.878Z,8.37
2023-01-07T16:00:44.095Z,6.57
2023-01-07T16:03:15.884Z,6.63
2023-01-07T16:05:43.533Z,8.40
2023-01-07T16:08:18.534Z,8.93
2023-01-07T16:10:58.024Z,7.37
2023-01-07T16:13:25.210Z,7.83
2023-01-07T16:16:02.995Z,8.77
2023-01-07T16:18:34.168Z,7.77
2023-01-07T16:23:35.057Z,7.40
2023-01-07T16:26:14.830Z,7.27
2023-01-07T16:28:44.892Z,9.50
2023-01-07T16:31:13.744Z,7.17
2023-01-07T16:33:41.441Z,8.33
2023-01-07T16:36:20.134Z,8.87
2023-01-07T16:38:49.072Z,4.77
2023-01-07T16:41:23.544Z,7.97
2023-01-07T16:43:57.750Z,8.23
2023-01-07T16:46:26.665Z,4.07
2023-01-07T16:49:12.118Z,8.03
2023-01-07T16:51:42.631Z,6.43
2023-01-07T16:54:31.331Z,6.90
2023-01-07T16:57:02.679Z,7.37
2023-01-07T17:00:03.734Z,8.13
2023-01-07T17:02:33.675Z,7.75
2023-01-07T17:05:19.208Z,7.03
2023-01-07T17:07:48.823Z,7.73
2023-01-07T17:10:21.926Z,8.57
2023-01-07T17:12:56.412Z,6.97
2023-01-07T17:15:28.883Z,5.10
2023-01-07T17:18:16.015Z,6.23
2023-01-07T17:20:53.736Z,6.87
2023-01-07T17:23:23.879Z,5.40
2023-01-07T17:25:56.407Z,5.47
2023-01-07T17:28:25.522Z,7.27
2023-01-07T17:30:52.962Z,6.47
2023-01-07T17:33:24.914Z,7.67
2023-01-07T17:35:54.195Z,6.30
2023-01-07T17:38:21.793Z,6.80
2023-01-07T17:40:48.990Z,8.50
2023-01-07T17:43:34.119Z,6.83
2023-01-07T17:46:04.195Z,5.40
2023-01-07T17:48:31.963Z,7.15
2023-01-07T17:51:00.664Z,6.77
2023-01-07T17:53:30.664Z,8.13
2023-01-07T17:55:58.153Z,9.87
2023-01-07T17:58:31.207Z,7.37
2023-01-07T18:00:59.513Z,7.57
2023-01-07T18:03:27.128Z,7.83
2023-01-07T18:05:54.327Z,6.97
2023-01-07T18:08:21.410Z,5.47
2023-01-07T18:11:07.839Z,8.57
2023-01-07T18:13:34.953Z,6.80
2023-01-07T18:16:02.148Z,10.63
2023-01-07T18:18:29.420Z,4.97
2023-01-07T18:20:56.914Z,8.87
2023-01-07T18:23:24.728Z,8.60
2023-01-07T18:25:51.920Z,8.90
2023-01-07T18:28:18.993Z,8.43
2023-01-07T18:30:46.099Z,10.93
2023-01-07T18:33:13.271Z,10.20
2023-01-07T18:35:43.476Z,9.27
2023-01-07T18:38:14.128Z,10.57
2023-01-07T18:40:41.276Z,7.22
2023-01-07T18:43:08.393Z,9.70
2023-01-07T18:45:35.582Z,8.87
2023-01-07T18:48:02.671Z,6.33
2023-01-07T18:50:30.223Z,8.33
2023-01-07T18:52:57.466Z,8.73
2023-01-07T18:55:26.909Z,11.87
2023-01-07T18:57:54.162Z,9.50
2023-01-07T19:00:21.370Z,10.57
2023-01-07T19:02:48.493Z,10.03
2023-01-07T19:05:15.691Z,11.63
2023-01-07T19:07:43.457Z,9.27
2023-01-07T19:10:10.850Z,8.67
2023-01-07T19:12:37.955Z,8.03
2023-01-07T19:15:05.325Z,7.63
2023-01-07T19:17:32.466Z,8.07
2023-01-07T19:19:59.571Z,7.60
2023-01-07T19:22:26.769Z,9.10
2023-01-07T19:24:56.621Z,8.83
2023-01-07T19:27:24.472Z,8.40
2023-01-07T19:29:51.654Z,6.77
2023-01-07T19:32:18.785Z,8.40
2023-01-07T19:34:45.878Z,7.40
2023-01-07T19:37:13.059Z,5.53
2023-01-07T19:39:40.587Z,8.10
2023-01-07T19:42:09.861Z,5.80
2023-01-07T19:44:38.487Z,7.20
2023-01-07T19:47:05.618Z,6.77
2023-01-07T19:49:32.731Z,7.90
2023-01-07T19:52:00.028Z,8.03
2023-01-07T19:54:27.137Z,7.80
2023-01-07T19:56:54.511Z,7.43
2023-01-07T19:59:21.668Z,8.07
2023-01-07T20:01:49.967Z,6.03
2023-01-07T20:04:17.260Z,3.60
2023-01-07T20:06:46.614Z,7.15
2023-01-07T20:09:13.831Z,7.35
2023-01-07T20:11:42.507Z,7.95
2023-01-07T20:14:10.710Z,7.55
2023-01-07T20:16:39.549Z,7.43
2023-01-07T20:19:06.904Z,6.75
2023-01-07T20:21:34.443Z,7.13
2023-01-07T20:24:01.900Z,7.00
2023-01-07T20:26:30.311Z,7.40
2023-01-07T20:28:58.240Z,7.47
2023-01-07T20:31:26.724Z,7.85
2023-01-07T20:33:57.480Z,6.30
2023-01-07T20:36:26.053Z,7.45
2023-01-07T20:38:53.683Z,8.07
2023-01-07T20:41:22.058Z,7.78
2023-01-07T20:43:59.274Z,7.55
2023-01-07T20:46:27.666Z,9.35
2023-01-07T20:48:55.262Z,7.18
2023-01-07T20:51:22.390Z,8.10
2023-01-07T20:53:49.810Z,7.90
2023-01-07T20:56:18.946Z,6.55
2023-01-07T20:58:46.073Z,7.60
2023-01-07T21:01:14.753Z,7.38
2023-01-07T21:03:42.328Z,6.78
2023-01-07T21:06:10.512Z,7.05
2023-01-07T21:08:37.806Z,5.70
2023-01-07T21:11:08.311Z,8.02
2023-01-07T21:13:35.399Z,7.10
2023-01-07T21:16:06.060Z,6.03
2023-01-07T21:18:34.231Z,6.97
2023-01-07T21:21:09.611Z,6.80
2023-01-07T21:23:36.763Z,7.10
2023-01-07T21:26:03.947Z,8.27
2023-01-07T21:28:31.436Z,7.20
2023-01-07T21:31:02.507Z,6.95
2023-01-07T21:33:29.658Z,8.00
2023-01-07T21:35:56.933Z,7.70
2023-01-07T21:38:24.072Z,7.43
2023-01-07T21:40:51.178Z,6.93
2023-01-07T21:43:18.402Z,8.02
2023-01-07T21:45:45.570Z,7.93
2023-01-07T21:48:12.730Z,7.95
2023-01-07T21:50:39.929Z,7.32
2023-01-07T21:53:07.362Z,7.18
2023-01-07T21:55:37.851Z,8.90
2023-01-07T21:58:05.009Z,8.75
2023-01-07T22:00:32.096Z,8.57
2023-01-07T22:02:59.408Z,7.78
2023-01-07T22:05:26.632Z,9.18
2023-01-07T22:07:53.755Z,7.68
2023-01-07T22:10:20.895Z,7.28
2023-01-07T22:12:48.089Z,8.95
2023-01-07T22:15:15.342Z,9.10
2023-01-07T22:17:42.557Z,8.05
2023-01-07T22:20:10.236Z,8.15
2023-01-07T22:22:37.312Z,8.93
2023-01-07T22:25:04.498Z,7.65
2023-01-07T22:27:32.013Z,9.27
2023-01-07T22:30:00.371Z,8.35
2023-01-07T22:32:27.684Z,8.98
2023-01-07T22:34:54.857Z,6.15
2023-01-07T22:37:23.924Z,7.43
2023-01-07T22:39:57.157Z,8.30
2023-01-07T22:42:38.362Z,8.70
2023-01-07T22:45:08.872Z,6.82
2023-01-07T22:47:36.723Z,9.20
2023-01-07T22:50:04.996Z,8.45
2023-01-07T22:52:32.205Z,10.10
2023-01-07T22:54:59.778Z,6.93
2023-01-07T22:57:26.994Z,9.65
2023-01-07T22:59:54.140Z,9.70
2023-01-07T23:02:21.249Z,8.40
2023-01-07T23:04:48.365Z,9.23
2023-01-07T23:07:15.520Z,9.80
2023-01-07T23:09:42.651Z,8.70
2023-01-07T23:12:11.088Z,7.25
2023-01-07T23:14:38.332Z,8.07
2023-01-07T23:17:05.486Z,8.35
2023-01-07T23:19:32.649Z,8.67
2023-01-07T23:21:59.870Z,9.27
2023-01-07T23:24:26.948Z,8.45
2023-01-07T23:26:54.626Z,9.93
2023-01-07T23:29:22.146Z,9.80
2023-01-07T23:31:49.965Z,10.57
2023-01-07T23:34:17.483Z,9.45
2023-01-07T23:36:44.839Z,6.30
2023-01-07T23:39:12.251Z,8.07
2023-01-07T23:41:39.371Z,8.95
2023-01-07T23:44:06.563Z,10.20
2023-01-07T23:46:33.715Z,8.48
2023-01-07T23:49:00.867Z,8.70
2023-01-07T23:51:28.122Z,7.30
2023-01-07T23:53:55.277Z,9.50
2023-01-07T23:56:22.494Z,9.43
2023-01-07T23:58:50.364Z,9.30
